| State | Nebraska | Latest | Unknown (2350 cfs) | |
| River | Platte River | Rating | Observed | Estimated |
| Updated | 2026-05-05 6:15 (26 minutes ago) | Flood - The river is flooding. Obstacles can be treacherous or deadly. The river should be avoided at this stage for casual trips and definitely for the inexperienced. Trips should be attempted only with protective gear and equipment.Flood | (none) | (none) |
| Discharge | 2350 cfs (median: 4700 cfs) | High - The river is high and potentially dangerous, especially for the young and / or inexperienced. Normal stream obstacles are sometimes difficult to navigate. Extended distances can be attempted, but canoe travel may not be advisable.High | (none) | (none) |
| Height | 3.05 feet | Good - Conditions are ideal for a canoe or kayak. Boats typically will drag on fewer than one-quarter of riffles, if at all, and portages are unnecessary or rare. Normal float lengths can be attempted without a problem.Good | (none) | (none) |
| Trend | Rising (rising over 24 hours) | Low - River is low but can still be floated. Some riffles are okay but most come with significant dragging and might need a portage. Float lengths should be reduced to accommodate low flow, dragging, and portages.Low | (none) | (none) |
| USGS | USGS Site ( Duck Duck Go Maps) | Poor - River is too low to float comfortably. Most or all riffles will drag or must be portaged and some obstacles (such as slick shelf rock) cause undue problems. Avoid the river at this stage for casual paddling trips.Poor | (none) | (none) |
| Date | Start | End | Distance | Condition | Discharge | Height | Fishing | Details |
|---|
A total of 0 rows are displayed.
BLG - Bluegill
CCF - Channel Catfish
CP - Chain Pickerel
FWD - Freshwater Drum
GSF - Green Sunfish
KSB - Kentucky Spotted Bass
LMB - Largemouth Bass
LSF - Longear Sunfish
RB - Rock Bass / Goggle Eye
RSF - Redear Sunfish
RT - Rainbow Trout
SMB - Smallmouth Bass
WB - White Bass
WF - Whitefish
WL - WalleyeThe classic River Trips application is still available for use. It is updated with the new system using a data retrofit. It is no longer maintained. The original River Trips application is no longer updated (as of 1 Dec 2016) but can be checked for errors or for the condition of the data before it was converted to the new system.
| Observation | Height | Discharge | Maximum Discharge | Minimum Discharge | Mean Discharge | P05 | P10 | P20 | P25 | P50 (Median) | P75 | P80 | P90 | P95 |
|---|---|---|---|---|---|---|---|---|---|---|---|---|---|---|
| 2026-05-05 06:15 | 3.05 | 2350 | 27100 (1984) | 1560 (1955) | 5480 | 2510 | 2620 | 3140 | 3490 | 4700 | 6270 | 6750 | 9160 | 12000 |
| 2026-05-05 05:15 | 3.03 | 2300 | 27100 (1984) | 1560 (1955) | 5480 | 2510 | 2620 | 3140 | 3490 | 4700 | 6270 | 6750 | 9160 | 12000 |
| 2026-05-05 04:15 | 2.98 | 2170 | 27100 (1984) | 1560 (1955) | 5480 | 2510 | 2620 | 3140 | 3490 | 4700 | 6270 | 6750 | 9160 | 12000 |
| 2026-05-05 03:15 | 2.94 | 2070 | 27100 (1984) | 1560 (1955) | 5480 | 2510 | 2620 | 3140 | 3490 | 4700 | 6270 | 6750 | 9160 | 12000 |
| 2026-05-05 02:15 | 2.89 | 1950 | 27100 (1984) | 1560 (1955) | 5480 | 2510 | 2620 | 3140 | 3490 | 4700 | 6270 | 6750 | 9160 | 12000 |
| 2026-05-05 01:15 | 2.86 | 1880 | 27100 (1984) | 1560 (1955) | 5480 | 2510 | 2620 | 3140 | 3490 | 4700 | 6270 | 6750 | 9160 | 12000 |
| 2026-05-05 00:15 | 2.84 | 1830 | 27100 (1984) | 1560 (1955) | 5480 | 2510 | 2620 | 3140 | 3490 | 4700 | 6270 | 6750 | 9160 | 12000 |
| 2026-05-04 23:15 | 2.82 | 1790 | 27100 (1984) | 1560 (1955) | 5480 | 2510 | 2620 | 3140 | 3490 | 4700 | 6270 | 6750 | 9160 | 12000 |
| 2026-05-04 22:15 | 2.81 | 1760 | 28400 (1984) | 1530 (1955) | 5420 | 2380 | 2750 | 3090 | 3460 | 4640 | 6340 | 6640 | 8140 | 9780 |
| 2026-05-04 21:15 | 2.82 | 1790 | 28400 (1984) | 1530 (1955) | 5420 | 2380 | 2750 | 3090 | 3460 | 4640 | 6340 | 6640 | 8140 | 9780 |
| 2026-05-04 20:15 | 2.85 | 1860 | 28400 (1984) | 1530 (1955) | 5420 | 2380 | 2750 | 3090 | 3460 | 4640 | 6340 | 6640 | 8140 | 9780 |
| 2026-05-04 19:15 | 2.87 | 1900 | 28400 (1984) | 1530 (1955) | 5420 | 2380 | 2750 | 3090 | 3460 | 4640 | 6340 | 6640 | 8140 | 9780 |
| 2026-05-04 18:15 | 2.90 | 1970 | 28400 (1984) | 1530 (1955) | 5420 | 2380 | 2750 | 3090 | 3460 | 4640 | 6340 | 6640 | 8140 | 9780 |
| 2026-05-04 17:15 | 2.93 | 2050 | 28400 (1984) | 1530 (1955) | 5420 | 2380 | 2750 | 3090 | 3460 | 4640 | 6340 | 6640 | 8140 | 9780 |
| 2026-05-04 16:15 | 2.94 | 2070 | 28400 (1984) | 1530 (1955) | 5420 | 2380 | 2750 | 3090 | 3460 | 4640 | 6340 | 6640 | 8140 | 9780 |
| 2026-05-04 15:15 | 2.96 | 2120 | 28400 (1984) | 1530 (1955) | 5420 | 2380 | 2750 | 3090 | 3460 | 4640 | 6340 | 6640 | 8140 | 9780 |
| 2026-05-04 14:15 | 2.96 | 2120 | 28400 (1984) | 1530 (1955) | 5420 | 2380 | 2750 | 3090 | 3460 | 4640 | 6340 | 6640 | 8140 | 9780 |
| 2026-05-04 13:15 | 2.94 | 2070 | 28400 (1984) | 1530 (1955) | 5420 | 2380 | 2750 | 3090 | 3460 | 4640 | 6340 | 6640 | 8140 | 9780 |
| 2026-05-04 12:15 | 2.93 | 2050 | 28400 (1984) | 1530 (1955) | 5420 | 2380 | 2750 | 3090 | 3460 | 4640 | 6340 | 6640 | 8140 | 9780 |
| 2026-05-04 11:15 | 2.91 | 2000 | 28400 (1984) | 1530 (1955) | 5420 | 2380 | 2750 | 3090 | 3460 | 4640 | 6340 | 6640 | 8140 | 9780 |
| 2026-05-04 10:15 | 2.90 | 1970 | 28400 (1984) | 1530 (1955) | 5420 | 2380 | 2750 | 3090 | 3460 | 4640 | 6340 | 6640 | 8140 | 9780 |
| 2026-05-04 09:15 | 2.90 | 1970 | 28400 (1984) | 1530 (1955) | 5420 | 2380 | 2750 | 3090 | 3460 | 4640 | 6340 | 6640 | 8140 | 9780 |
| 2026-05-04 08:15 | 2.90 | 1970 | 28400 (1984) | 1530 (1955) | 5420 | 2380 | 2750 | 3090 | 3460 | 4640 | 6340 | 6640 | 8140 | 9780 |
| 2026-05-04 07:15 | 2.93 | 2050 | 28400 (1984) | 1530 (1955) | 5420 | 2380 | 2750 | 3090 | 3460 | 4640 | 6340 | 6640 | 8140 | 9780 |
| 2026-05-04 06:15 | 2.95 | 2100 | 28400 (1984) | 1530 (1955) | 5420 | 2380 | 2750 | 3090 | 3460 | 4640 | 6340 | 6640 | 8140 | 9780 |
| 2026-05-04 05:15 | 2.97 | 2150 | 28400 (1984) | 1530 (1955) | 5420 | 2380 | 2750 | 3090 | 3460 | 4640 | 6340 | 6640 | 8140 | 9780 |
| 2026-05-04 04:15 | 2.99 | 2200 | 28400 (1984) | 1530 (1955) | 5420 | 2380 | 2750 | 3090 | 3460 | 4640 | 6340 | 6640 | 8140 | 9780 |
| 2026-05-04 03:15 | 2.99 | 2200 | 28400 (1984) | 1530 (1955) | 5420 | 2380 | 2750 | 3090 | 3460 | 4640 | 6340 | 6640 | 8140 | 9780 |
| 2026-05-04 02:15 | 3.00 | 2220 | 28400 (1984) | 1530 (1955) | 5420 | 2380 | 2750 | 3090 | 3460 | 4640 | 6340 | 6640 | 8140 | 9780 |
| 2026-05-04 01:15 | 2.99 | 2200 | 28400 (1984) | 1530 (1955) | 5420 | 2380 | 2750 | 3090 | 3460 | 4640 | 6340 | 6640 | 8140 | 9780 |
| 2026-05-04 00:15 | 3.00 | 2220 | 28400 (1984) | 1530 (1955) | 5420 | 2380 | 2750 | 3090 | 3460 | 4640 | 6340 | 6640 | 8140 | 9780 |
| 2026-05-03 23:15 | 3.00 | 2220 | 28400 (1984) | 1530 (1955) | 5420 | 2380 | 2750 | 3090 | 3460 | 4640 | 6340 | 6640 | 8140 | 9780 |
| 2026-05-03 22:15 | 3.00 | 2220 | 26700 (1984) | 1660 (1955) | 5430 | 2420 | 2730 | 3040 | 3440 | 4860 | 6410 | 6720 | 8000 | 9700 |
| 2026-05-03 21:15 | 3.00 | 2220 | 26700 (1984) | 1660 (1955) | 5430 | 2420 | 2730 | 3040 | 3440 | 4860 | 6410 | 6720 | 8000 | 9700 |
| 2026-05-03 20:15 | 3.00 | 2220 | 26700 (1984) | 1660 (1955) | 5430 | 2420 | 2730 | 3040 | 3440 | 4860 | 6410 | 6720 | 8000 | 9700 |
| 2026-05-03 19:15 | 2.99 | 2200 | 26700 (1984) | 1660 (1955) | 5430 | 2420 | 2730 | 3040 | 3440 | 4860 | 6410 | 6720 | 8000 | 9700 |
| 2026-05-03 18:15 | 3.00 | 2220 | 26700 (1984) | 1660 (1955) | 5430 | 2420 | 2730 | 3040 | 3440 | 4860 | 6410 | 6720 | 8000 | 9700 |
| 2026-05-03 17:15 | 2.99 | 2200 | 26700 (1984) | 1660 (1955) | 5430 | 2420 | 2730 | 3040 | 3440 | 4860 | 6410 | 6720 | 8000 | 9700 |
| 2026-05-03 16:15 | 3.01 | 2250 | 26700 (1984) | 1660 (1955) | 5430 | 2420 | 2730 | 3040 | 3440 | 4860 | 6410 | 6720 | 8000 | 9700 |
| 2026-05-03 15:15 | 3.00 | 2220 | 26700 (1984) | 1660 (1955) | 5430 | 2420 | 2730 | 3040 | 3440 | 4860 | 6410 | 6720 | 8000 | 9700 |
| 2026-05-03 14:15 | 3.01 | 2250 | 26700 (1984) | 1660 (1955) | 5430 | 2420 | 2730 | 3040 | 3440 | 4860 | 6410 | 6720 | 8000 | 9700 |
| 2026-05-03 13:15 | 3.00 | 2220 | 26700 (1984) | 1660 (1955) | 5430 | 2420 | 2730 | 3040 | 3440 | 4860 | 6410 | 6720 | 8000 | 9700 |
| 2026-05-03 12:15 | 2.99 | 2200 | 26700 (1984) | 1660 (1955) | 5430 | 2420 | 2730 | 3040 | 3440 | 4860 | 6410 | 6720 | 8000 | 9700 |
| 2026-05-03 11:15 | 2.99 | 2200 | 26700 (1984) | 1660 (1955) | 5430 | 2420 | 2730 | 3040 | 3440 | 4860 | 6410 | 6720 | 8000 | 9700 |
| 2026-05-03 10:15 | 2.99 | 2200 | 26700 (1984) | 1660 (1955) | 5430 | 2420 | 2730 | 3040 | 3440 | 4860 | 6410 | 6720 | 8000 | 9700 |
| 2026-05-03 09:15 | 3.00 | 2220 | 26700 (1984) | 1660 (1955) | 5430 | 2420 | 2730 | 3040 | 3440 | 4860 | 6410 | 6720 | 8000 | 9700 |
| 2026-05-03 08:15 | 3.00 | 2220 | 26700 (1984) | 1660 (1955) | 5430 | 2420 | 2730 | 3040 | 3440 | 4860 | 6410 | 6720 | 8000 | 9700 |
| 2026-05-03 07:15 | 3.00 | 2220 | 26700 (1984) | 1660 (1955) | 5430 | 2420 | 2730 | 3040 | 3440 | 4860 | 6410 | 6720 | 8000 | 9700 |
| 2026-05-03 06:15 | 2.99 | 2200 | 26700 (1984) | 1660 (1955) | 5430 | 2420 | 2730 | 3040 | 3440 | 4860 | 6410 | 6720 | 8000 | 9700 |
| 2026-05-03 05:15 | 2.99 | 2200 | 26700 (1984) | 1660 (1955) | 5430 | 2420 | 2730 | 3040 | 3440 | 4860 | 6410 | 6720 | 8000 | 9700 |
| 2026-05-03 04:15 | 2.97 | 2150 | 26700 (1984) | 1660 (1955) | 5430 | 2420 | 2730 | 3040 | 3440 | 4860 | 6410 | 6720 | 8000 | 9700 |
| 2026-05-03 03:15 | 2.95 | 2100 | 26700 (1984) | 1660 (1955) | 5430 | 2420 | 2730 | 3040 | 3440 | 4860 | 6410 | 6720 | 8000 | 9700 |
| 2026-05-03 02:15 | 2.95 | 2100 | 26700 (1984) | 1660 (1955) | 5430 | 2420 | 2730 | 3040 | 3440 | 4860 | 6410 | 6720 | 8000 | 9700 |
| 2026-05-03 01:15 | 2.96 | 2120 | 26700 (1984) | 1660 (1955) | 5430 | 2420 | 2730 | 3040 | 3440 | 4860 | 6410 | 6720 | 8000 | 9700 |
| 2026-05-03 00:15 | 2.98 | 2170 | 26700 (1984) | 1660 (1955) | 5430 | 2420 | 2730 | 3040 | 3440 | 4860 | 6410 | 6720 | 8000 | 9700 |
| 2026-05-02 23:15 | 3.00 | 2220 | 26700 (1984) | 1660 (1955) | 5430 | 2420 | 2730 | 3040 | 3440 | 4860 | 6410 | 6720 | 8000 | 9700 |
| 2026-05-02 22:15 | 3.00 | 2220 | 25200 (1984) | 1800 (1955) | 5480 | 2230 | 2800 | 3130 | 3690 | 4940 | 6100 | 6550 | 8140 | 11800 |
| 2026-05-02 21:15 | 2.99 | 2200 | 25200 (1984) | 1800 (1955) | 5480 | 2230 | 2800 | 3130 | 3690 | 4940 | 6100 | 6550 | 8140 | 11800 |
| 2026-05-02 20:15 | 2.98 | 2170 | 25200 (1984) | 1800 (1955) | 5480 | 2230 | 2800 | 3130 | 3690 | 4940 | 6100 | 6550 | 8140 | 11800 |
| 2026-05-02 19:15 | 2.96 | 2120 | 25200 (1984) | 1800 (1955) | 5480 | 2230 | 2800 | 3130 | 3690 | 4940 | 6100 | 6550 | 8140 | 11800 |
| 2026-05-02 18:15 | 2.91 | 2000 | 25200 (1984) | 1800 (1955) | 5480 | 2230 | 2800 | 3130 | 3690 | 4940 | 6100 | 6550 | 8140 | 11800 |
| 2026-05-02 17:15 | 2.85 | 1860 | 25200 (1984) | 1800 (1955) | 5480 | 2230 | 2800 | 3130 | 3690 | 4940 | 6100 | 6550 | 8140 | 11800 |
| 2026-05-02 16:15 | 2.82 | 1790 | 25200 (1984) | 1800 (1955) | 5480 | 2230 | 2800 | 3130 | 3690 | 4940 | 6100 | 6550 | 8140 | 11800 |
| 2026-05-02 15:15 | 2.77 | 1670 | 25200 (1984) | 1800 (1955) | 5480 | 2230 | 2800 | 3130 | 3690 | 4940 | 6100 | 6550 | 8140 | 11800 |
| 2026-05-02 14:15 | 2.72 | 1570 | 25200 (1984) | 1800 (1955) | 5480 | 2230 | 2800 | 3130 | 3690 | 4940 | 6100 | 6550 | 8140 | 11800 |
| 2026-05-02 13:15 | 2.71 | 1550 | 25200 (1984) | 1800 (1955) | 5480 | 2230 | 2800 | 3130 | 3690 | 4940 | 6100 | 6550 | 8140 | 11800 |
| 2026-05-02 12:15 | 2.70 | 1520 | 25200 (1984) | 1800 (1955) | 5480 | 2230 | 2800 | 3130 | 3690 | 4940 | 6100 | 6550 | 8140 | 11800 |
| 2026-05-02 11:15 | 2.70 | 1520 | 25200 (1984) | 1800 (1955) | 5480 | 2230 | 2800 | 3130 | 3690 | 4940 | 6100 | 6550 | 8140 | 11800 |
| 2026-05-02 10:15 | 2.69 | 1500 | 25200 (1984) | 1800 (1955) | 5480 | 2230 | 2800 | 3130 | 3690 | 4940 | 6100 | 6550 | 8140 | 11800 |
| 2026-05-02 09:15 | 2.69 | 1500 | 25200 (1984) | 1800 (1955) | 5480 | 2230 | 2800 | 3130 | 3690 | 4940 | 6100 | 6550 | 8140 | 11800 |
| 2026-05-02 08:15 | 2.68 | 1480 | 25200 (1984) | 1800 (1955) | 5480 | 2230 | 2800 | 3130 | 3690 | 4940 | 6100 | 6550 | 8140 | 11800 |
| 2026-05-02 07:15 | 2.69 | 1500 | 25200 (1984) | 1800 (1955) | 5480 | 2230 | 2800 | 3130 | 3690 | 4940 | 6100 | 6550 | 8140 | 11800 |
| 2026-05-02 06:15 | 2.68 | 1480 | 25200 (1984) | 1800 (1955) | 5480 | 2230 | 2800 | 3130 | 3690 | 4940 | 6100 | 6550 | 8140 | 11800 |
| 2026-05-02 05:15 | 2.68 | 1480 | 25200 (1984) | 1800 (1955) | 5480 | 2230 | 2800 | 3130 | 3690 | 4940 | 6100 | 6550 | 8140 | 11800 |
| 2026-05-02 04:15 | 2.68 | 1480 | 25200 (1984) | 1800 (1955) | 5480 | 2230 | 2800 | 3130 | 3690 | 4940 | 6100 | 6550 | 8140 | 11800 |
| 2026-05-02 03:15 | 2.68 | 1480 | 25200 (1984) | 1800 (1955) | 5480 | 2230 | 2800 | 3130 | 3690 | 4940 | 6100 | 6550 | 8140 | 11800 |
| 2026-05-02 02:15 | 2.67 | 1460 | 25200 (1984) | 1800 (1955) | 5480 | 2230 | 2800 | 3130 | 3690 | 4940 | 6100 | 6550 | 8140 | 11800 |
| 2026-05-02 01:15 | 2.68 | 1480 | 25200 (1984) | 1800 (1955) | 5480 | 2230 | 2800 | 3130 | 3690 | 4940 | 6100 | 6550 | 8140 | 11800 |
| 2026-05-02 00:15 | 2.68 | 1480 | 25200 (1984) | 1800 (1955) | 5480 | 2230 | 2800 | 3130 | 3690 | 4940 | 6100 | 6550 | 8140 | 11800 |
| 2026-05-01 23:15 | 2.69 | 1500 | 25200 (1984) | 1800 (1955) | 5480 | 2230 | 2800 | 3130 | 3690 | 4940 | 6100 | 6550 | 8140 | 11800 |
| 2026-05-01 22:15 | 2.70 | 1520 | 25000 (1984) | 2160 (1989) | 5520 | 2400 | 2780 | 3460 | 3700 | 4950 | 6410 | 6730 | 8630 | 9960 |
| 2026-05-01 21:15 | 2.73 | 1590 | 25000 (1984) | 2160 (1989) | 5520 | 2400 | 2780 | 3460 | 3700 | 4950 | 6410 | 6730 | 8630 | 9960 |
| 2026-05-01 20:15 | 2.76 | 1650 | 25000 (1984) | 2160 (1989) | 5520 | 2400 | 2780 | 3460 | 3700 | 4950 | 6410 | 6730 | 8630 | 9960 |
| 2026-05-01 19:15 | 2.80 | 1740 | 25000 (1984) | 2160 (1989) | 5520 | 2400 | 2780 | 3460 | 3700 | 4950 | 6410 | 6730 | 8630 | 9960 |
| 2026-05-01 18:15 | 2.86 | 1880 | 25000 (1984) | 2160 (1989) | 5520 | 2400 | 2780 | 3460 | 3700 | 4950 | 6410 | 6730 | 8630 | 9960 |
| 2026-05-01 17:15 | 2.92 | 2020 | 25000 (1984) | 2160 (1989) | 5520 | 2400 | 2780 | 3460 | 3700 | 4950 | 6410 | 6730 | 8630 | 9960 |
| 2026-05-01 16:15 | 2.98 | 2170 | 25000 (1984) | 2160 (1989) | 5520 | 2400 | 2780 | 3460 | 3700 | 4950 | 6410 | 6730 | 8630 | 9960 |
| 2026-05-01 15:15 | 3.06 | 2380 | 25000 (1984) | 2160 (1989) | 5520 | 2400 | 2780 | 3460 | 3700 | 4950 | 6410 | 6730 | 8630 | 9960 |
| 2026-05-01 14:15 | 3.13 | 2570 | 25000 (1984) | 2160 (1989) | 5520 | 2400 | 2780 | 3460 | 3700 | 4950 | 6410 | 6730 | 8630 | 9960 |
| 2026-05-01 13:15 | 3.21 | 2800 | 25000 (1984) | 2160 (1989) | 5520 | 2400 | 2780 | 3460 | 3700 | 4950 | 6410 | 6730 | 8630 | 9960 |
| 2026-05-01 12:15 | 3.30 | 3070 | 25000 (1984) | 2160 (1989) | 5520 | 2400 | 2780 | 3460 | 3700 | 4950 | 6410 | 6730 | 8630 | 9960 |
| 2026-05-01 11:15 | 3.36 | 3260 | 25000 (1984) | 2160 (1989) | 5520 | 2400 | 2780 | 3460 | 3700 | 4950 | 6410 | 6730 | 8630 | 9960 |
| 2026-05-01 10:15 | 3.42 | 3450 | 25000 (1984) | 2160 (1989) | 5520 | 2400 | 2780 | 3460 | 3700 | 4950 | 6410 | 6730 | 8630 | 9960 |
| 2026-05-01 09:15 | 3.49 | 3690 | 25000 (1984) | 2160 (1989) | 5520 | 2400 | 2780 | 3460 | 3700 | 4950 | 6410 | 6730 | 8630 | 9960 |
| 2026-05-01 08:15 | 3.55 | 3900 | 25000 (1984) | 2160 (1989) | 5520 | 2400 | 2780 | 3460 | 3700 | 4950 | 6410 | 6730 | 8630 | 9960 |
| 2026-05-01 07:15 | 3.58 | 4000 | 25000 (1984) | 2160 (1989) | 5520 | 2400 | 2780 | 3460 | 3700 | 4950 | 6410 | 6730 | 8630 | 9960 |
| 2026-05-01 06:15 | 3.60 | 4080 | 25000 (1984) | 2160 (1989) | 5520 | 2400 | 2780 | 3460 | 3700 | 4950 | 6410 | 6730 | 8630 | 9960 |
| 2026-05-01 05:15 | 3.58 | 4000 | 25000 (1984) | 2160 (1989) | 5520 | 2400 | 2780 | 3460 | 3700 | 4950 | 6410 | 6730 | 8630 | 9960 |
| 2026-05-01 04:15 | 3.57 | 3970 | 25000 (1984) | 2160 (1989) | 5520 | 2400 | 2780 | 3460 | 3700 | 4950 | 6410 | 6730 | 8630 | 9960 |
| 2026-05-01 03:15 | 3.52 | 3790 | 25000 (1984) | 2160 (1989) | 5520 | 2400 | 2780 | 3460 | 3700 | 4950 | 6410 | 6730 | 8630 | 9960 |
| 2026-05-01 02:15 | 3.43 | 3490 | 25000 (1984) | 2160 (1989) | 5520 | 2400 | 2780 | 3460 | 3700 | 4950 | 6410 | 6730 | 8630 | 9960 |
| 2026-05-01 01:15 | 3.28 | 3010 | 25000 (1984) | 2160 (1989) | 5520 | 2400 | 2780 | 3460 | 3700 | 4950 | 6410 | 6730 | 8630 | 9960 |
| 2026-05-01 00:15 | 3.05 | 2350 | 25000 (1984) | 2160 (1989) | 5520 | 2400 | 2780 | 3460 | 3700 | 4950 | 6410 | 6730 | 8630 | 9960 |
| 2026-04-30 23:15 | 2.85 | 1860 | 25000 (1984) | 2160 (1989) | 5520 | 2400 | 2780 | 3460 | 3700 | 4950 | 6410 | 6730 | 8630 | 9960 |
| 2026-04-30 22:15 | 2.68 | 1480 | 22100 (1984) | 1910 (2023) | 5340 | 2180 | 2680 | 3520 | 3660 | 4940 | 6320 | 6660 | 8020 | 10100 |
| 2026-04-30 21:15 | 2.62 | 1360 | 22100 (1984) | 1910 (2023) | 5340 | 2180 | 2680 | 3520 | 3660 | 4940 | 6320 | 6660 | 8020 | 10100 |
| 2026-04-30 20:15 | 2.63 | 1380 | 22100 (1984) | 1910 (2023) | 5340 | 2180 | 2680 | 3520 | 3660 | 4940 | 6320 | 6660 | 8020 | 10100 |
| 2026-04-30 19:15 | 2.69 | 1500 | 22100 (1984) | 1910 (2023) | 5340 | 2180 | 2680 | 3520 | 3660 | 4940 | 6320 | 6660 | 8020 | 10100 |
| 2026-04-30 18:15 | 2.79 | 1720 | 22100 (1984) | 1910 (2023) | 5340 | 2180 | 2680 | 3520 | 3660 | 4940 | 6320 | 6660 | 8020 | 10100 |
| 2026-04-30 17:15 | 2.90 | 1970 | 22100 (1984) | 1910 (2023) | 5340 | 2180 | 2680 | 3520 | 3660 | 4940 | 6320 | 6660 | 8020 | 10100 |
| 2026-04-30 16:15 | 3.03 | 2300 | 22100 (1984) | 1910 (2023) | 5340 | 2180 | 2680 | 3520 | 3660 | 4940 | 6320 | 6660 | 8020 | 10100 |
| 2026-04-30 15:15 | 3.14 | 2600 | 22100 (1984) | 1910 (2023) | 5340 | 2180 | 2680 | 3520 | 3660 | 4940 | 6320 | 6660 | 8020 | 10100 |
| 2026-04-30 14:15 | 3.25 | 2920 | 22100 (1984) | 1910 (2023) | 5340 | 2180 | 2680 | 3520 | 3660 | 4940 | 6320 | 6660 | 8020 | 10100 |
| 2026-04-30 13:15 | 3.33 | 3160 | 22100 (1984) | 1910 (2023) | 5340 | 2180 | 2680 | 3520 | 3660 | 4940 | 6320 | 6660 | 8020 | 10100 |
| 2026-04-30 12:15 | 3.40 | 3390 | 22100 (1984) | 1910 (2023) | 5340 | 2180 | 2680 | 3520 | 3660 | 4940 | 6320 | 6660 | 8020 | 10100 |
| 2026-04-30 11:15 | 3.49 | 3690 | 22100 (1984) | 1910 (2023) | 5340 | 2180 | 2680 | 3520 | 3660 | 4940 | 6320 | 6660 | 8020 | 10100 |
| 2026-04-30 10:15 | 3.55 | 3900 | 22100 (1984) | 1910 (2023) | 5340 | 2180 | 2680 | 3520 | 3660 | 4940 | 6320 | 6660 | 8020 | 10100 |
| 2026-04-30 09:15 | 3.59 | 4040 | 22100 (1984) | 1910 (2023) | 5340 | 2180 | 2680 | 3520 | 3660 | 4940 | 6320 | 6660 | 8020 | 10100 |
| 2026-04-30 08:15 | 3.60 | 4080 | 22100 (1984) | 1910 (2023) | 5340 | 2180 | 2680 | 3520 | 3660 | 4940 | 6320 | 6660 | 8020 | 10100 |
| 2026-04-30 07:15 | 3.59 | 4040 | 22100 (1984) | 1910 (2023) | 5340 | 2180 | 2680 | 3520 | 3660 | 4940 | 6320 | 6660 | 8020 | 10100 |
| 2026-04-30 06:15 | 3.60 | 4080 | 22100 (1984) | 1910 (2023) | 5340 | 2180 | 2680 | 3520 | 3660 | 4940 | 6320 | 6660 | 8020 | 10100 |
| 2026-04-30 05:15 | 3.59 | 4040 | 22100 (1984) | 1910 (2023) | 5340 | 2180 | 2680 | 3520 | 3660 | 4940 | 6320 | 6660 | 8020 | 10100 |
| 2026-04-30 04:15 | 3.54 | 3860 | 22100 (1984) | 1910 (2023) | 5340 | 2180 | 2680 | 3520 | 3660 | 4940 | 6320 | 6660 | 8020 | 10100 |
| 2026-04-30 03:15 | 3.48 | 3660 | 22100 (1984) | 1910 (2023) | 5340 | 2180 | 2680 | 3520 | 3660 | 4940 | 6320 | 6660 | 8020 | 10100 |
| 2026-04-30 02:15 | 3.37 | 3290 | 22100 (1984) | 1910 (2023) | 5340 | 2180 | 2680 | 3520 | 3660 | 4940 | 6320 | 6660 | 8020 | 10100 |
| 2026-04-30 01:15 | 3.17 | 2690 | 22100 (1984) | 1910 (2023) | 5340 | 2180 | 2680 | 3520 | 3660 | 4940 | 6320 | 6660 | 8020 | 10100 |
| 2026-04-30 00:15 | 2.93 | 2050 | 22100 (1984) | 1910 (2023) | 5340 | 2180 | 2680 | 3520 | 3660 | 4940 | 6320 | 6660 | 8020 | 10100 |
| 2026-04-29 23:15 | 2.69 | 1500 | 22100 (1984) | 1910 (2023) | 5340 | 2180 | 2680 | 3520 | 3660 | 4940 | 6320 | 6660 | 8020 | 10100 |
| 2026-04-29 22:15 | 2.54 | 1210 | 17000 (1984) | 1890 (2023) | 5400 | 2590 | 2890 | 3480 | 3730 | 4860 | 6120 | 6670 | 8050 | 11500 |
| 2026-04-29 21:15 | 2.48 | 1100 | 17000 (1984) | 1890 (2023) | 5400 | 2590 | 2890 | 3480 | 3730 | 4860 | 6120 | 6670 | 8050 | 11500 |
| 2026-04-29 20:15 | 2.50 | 1140 | 17000 (1984) | 1890 (2023) | 5400 | 2590 | 2890 | 3480 | 3730 | 4860 | 6120 | 6670 | 8050 | 11500 |
| 2026-04-29 19:15 | 2.56 | 1250 | 17000 (1984) | 1890 (2023) | 5400 | 2590 | 2890 | 3480 | 3730 | 4860 | 6120 | 6670 | 8050 | 11500 |
| 2026-04-29 18:15 | 2.66 | 1440 | 17000 (1984) | 1890 (2023) | 5400 | 2590 | 2890 | 3480 | 3730 | 4860 | 6120 | 6670 | 8050 | 11500 |
| 2026-04-29 17:15 | 2.77 | 1670 | 17000 (1984) | 1890 (2023) | 5400 | 2590 | 2890 | 3480 | 3730 | 4860 | 6120 | 6670 | 8050 | 11500 |
| 2026-04-29 16:15 | 2.90 | 1970 | 17000 (1984) | 1890 (2023) | 5400 | 2590 | 2890 | 3480 | 3730 | 4860 | 6120 | 6670 | 8050 | 11500 |
| 2026-04-29 15:15 | 3.02 | 2270 | 17000 (1984) | 1890 (2023) | 5400 | 2590 | 2890 | 3480 | 3730 | 4860 | 6120 | 6670 | 8050 | 11500 |
| 2026-04-29 14:15 | 3.18 | 2710 | 17000 (1984) | 1890 (2023) | 5400 | 2590 | 2890 | 3480 | 3730 | 4860 | 6120 | 6670 | 8050 | 11500 |
| 2026-04-29 13:15 | 3.29 | 3040 | 17000 (1984) | 1890 (2023) | 5400 | 2590 | 2890 | 3480 | 3730 | 4860 | 6120 | 6670 | 8050 | 11500 |
| 2026-04-29 12:15 | 3.38 | 3320 | 17000 (1984) | 1890 (2023) | 5400 | 2590 | 2890 | 3480 | 3730 | 4860 | 6120 | 6670 | 8050 | 11500 |
| 2026-04-29 11:15 | 3.46 | 3590 | 17000 (1984) | 1890 (2023) | 5400 | 2590 | 2890 | 3480 | 3730 | 4860 | 6120 | 6670 | 8050 | 11500 |
| 2026-04-29 10:15 | 3.52 | 3790 | 17000 (1984) | 1890 (2023) | 5400 | 2590 | 2890 | 3480 | 3730 | 4860 | 6120 | 6670 | 8050 | 11500 |
| 2026-04-29 09:15 | 3.59 | 4040 | 17000 (1984) | 1890 (2023) | 5400 | 2590 | 2890 | 3480 | 3730 | 4860 | 6120 | 6670 | 8050 | 11500 |
| 2026-04-29 08:15 | 3.62 | 4150 | 17000 (1984) | 1890 (2023) | 5400 | 2590 | 2890 | 3480 | 3730 | 4860 | 6120 | 6670 | 8050 | 11500 |
| 2026-04-29 07:15 | 3.63 | 4190 | 17000 (1984) | 1890 (2023) | 5400 | 2590 | 2890 | 3480 | 3730 | 4860 | 6120 | 6670 | 8050 | 11500 |
| 2026-04-29 06:15 | 3.59 | 4040 | 17000 (1984) | 1890 (2023) | 5400 | 2590 | 2890 | 3480 | 3730 | 4860 | 6120 | 6670 | 8050 | 11500 |
| 2026-04-29 05:15 | 3.57 | 3970 | 17000 (1984) | 1890 (2023) | 5400 | 2590 | 2890 | 3480 | 3730 | 4860 | 6120 | 6670 | 8050 | 11500 |
| 2026-04-29 04:15 | 3.55 | 3900 | 17000 (1984) | 1890 (2023) | 5400 | 2590 | 2890 | 3480 | 3730 | 4860 | 6120 | 6670 | 8050 | 11500 |
| 2026-04-29 03:15 | 3.52 | 3790 | 17000 (1984) | 1890 (2023) | 5400 | 2590 | 2890 | 3480 | 3730 | 4860 | 6120 | 6670 | 8050 | 11500 |
| 2026-04-29 02:15 | 3.41 | 3420 | 17000 (1984) | 1890 (2023) | 5400 | 2590 | 2890 | 3480 | 3730 | 4860 | 6120 | 6670 | 8050 | 11500 |
| 2026-04-29 01:15 | 3.27 | 2980 | 17000 (1984) | 1890 (2023) | 5400 | 2590 | 2890 | 3480 | 3730 | 4860 | 6120 | 6670 | 8050 | 11500 |
| 2026-04-29 00:15 | 3.05 | 2350 | 17000 (1984) | 1890 (2023) | 5400 | 2590 | 2890 | 3480 | 3730 | 4860 | 6120 | 6670 | 8050 | 11500 |
| 2026-04-28 23:15 | 2.82 | 1790 | 17000 (1984) | 1890 (2023) | 5400 | 2590 | 2890 | 3480 | 3730 | 4860 | 6120 | 6670 | 8050 | 11500 |
| 2026-04-28 22:15 | 2.63 | 1380 | 18300 (1984) | 1820 (2025) | 5520 | 2680 | 2820 | 3430 | 3600 | 4790 | 6360 | 6830 | 10200 | 12200 |
| 2026-04-28 21:15 | 2.53 | 1190 | 18300 (1984) | 1820 (2025) | 5520 | 2680 | 2820 | 3430 | 3600 | 4790 | 6360 | 6830 | 10200 | 12200 |
| 2026-04-28 20:15 | 2.50 | 1140 | 18300 (1984) | 1820 (2025) | 5520 | 2680 | 2820 | 3430 | 3600 | 4790 | 6360 | 6830 | 10200 | 12200 |
| 2026-04-28 19:15 | 2.54 | 1210 | 18300 (1984) | 1820 (2025) | 5520 | 2680 | 2820 | 3430 | 3600 | 4790 | 6360 | 6830 | 10200 | 12200 |
| 2026-04-28 18:15 | 2.62 | 1360 | 18300 (1984) | 1820 (2025) | 5520 | 2680 | 2820 | 3430 | 3600 | 4790 | 6360 | 6830 | 10200 | 12200 |
| 2026-04-28 17:15 | 2.72 | 1570 | 18300 (1984) | 1820 (2025) | 5520 | 2680 | 2820 | 3430 | 3600 | 4790 | 6360 | 6830 | 10200 | 12200 |
| 2026-04-28 16:15 | 2.82 | 1790 | 18300 (1984) | 1820 (2025) | 5520 | 2680 | 2820 | 3430 | 3600 | 4790 | 6360 | 6830 | 10200 | 12200 |
| 2026-04-28 15:15 | 2.94 | 2070 | 18300 (1984) | 1820 (2025) | 5520 | 2680 | 2820 | 3430 | 3600 | 4790 | 6360 | 6830 | 10200 | 12200 |
| 2026-04-28 14:15 | 3.09 | 2460 | 18300 (1984) | 1820 (2025) | 5520 | 2680 | 2820 | 3430 | 3600 | 4790 | 6360 | 6830 | 10200 | 12200 |
| 2026-04-28 13:15 | 3.21 | 2800 | 18300 (1984) | 1820 (2025) | 5520 | 2680 | 2820 | 3430 | 3600 | 4790 | 6360 | 6830 | 10200 | 12200 |
| 2026-04-28 12:15 | 3.34 | 3200 | 18300 (1984) | 1820 (2025) | 5520 | 2680 | 2820 | 3430 | 3600 | 4790 | 6360 | 6830 | 10200 | 12200 |
| 2026-04-28 11:15 | 3.39 | 3360 | 18300 (1984) | 1820 (2025) | 5520 | 2680 | 2820 | 3430 | 3600 | 4790 | 6360 | 6830 | 10200 | 12200 |
| 2026-04-28 10:15 | 3.47 | 3620 | 18300 (1984) | 1820 (2025) | 5520 | 2680 | 2820 | 3430 | 3600 | 4790 | 6360 | 6830 | 10200 | 12200 |
| 2026-04-28 09:15 | 3.49 | 3690 | 18300 (1984) | 1820 (2025) | 5520 | 2680 | 2820 | 3430 | 3600 | 4790 | 6360 | 6830 | 10200 | 12200 |
| 2026-04-28 08:15 | 3.46 | 3590 | 18300 (1984) | 1820 (2025) | 5520 | 2680 | 2820 | 3430 | 3600 | 4790 | 6360 | 6830 | 10200 | 12200 |
| 2026-04-28 07:15 | 3.39 | 3360 | 18300 (1984) | 1820 (2025) | 5520 | 2680 | 2820 | 3430 | 3600 | 4790 | 6360 | 6830 | 10200 | 12200 |
| 2026-04-28 06:15 | 3.26 | 2950 | 18300 (1984) | 1820 (2025) | 5520 | 2680 | 2820 | 3430 | 3600 | 4790 | 6360 | 6830 | 10200 | 12200 |
| 2026-04-28 05:15 | 3.12 | 2540 | 18300 (1984) | 1820 (2025) | 5520 | 2680 | 2820 | 3430 | 3600 | 4790 | 6360 | 6830 | 10200 | 12200 |
| 2026-04-28 04:15 | 2.93 | 2050 | 18300 (1984) | 1820 (2025) | 5520 | 2680 | 2820 | 3430 | 3600 | 4790 | 6360 | 6830 | 10200 | 12200 |
| 2026-04-28 03:15 | 2.76 | 1650 | 18300 (1984) | 1820 (2025) | 5520 | 2680 | 2820 | 3430 | 3600 | 4790 | 6360 | 6830 | 10200 | 12200 |
| 2026-04-28 02:15 | 2.61 | 1340 | 18300 (1984) | 1820 (2025) | 5520 | 2680 | 2820 | 3430 | 3600 | 4790 | 6360 | 6830 | 10200 | 12200 |
| 2026-04-28 01:15 | 2.49 | 1120 | 18300 (1984) | 1820 (2025) | 5520 | 2680 | 2820 | 3430 | 3600 | 4790 | 6360 | 6830 | 10200 | 12200 |
| 2026-04-28 00:15 | 2.41 | 986 | 18300 (1984) | 1820 (2025) | 5520 | 2680 | 2820 | 3430 | 3600 | 4790 | 6360 | 6830 | 10200 | 12200 |
| 2026-04-27 23:15 | 2.36 | 906 | 18300 (1984) | 1820 (2025) | 5520 | 2680 | 2820 | 3430 | 3600 | 4790 | 6360 | 6830 | 10200 | 12200 |
A total of 176 rows are displayed for years 1949 through 2025.